Terminal Aerodrome Forecast
Issued by NWS Pueblo, CO

Home | Current Version | Previous Version | Text Only | Print | Product List | Glossary On
Versions: 1 2 3 4 5 6 7 8 9 10 11 12 13 14 15 16 17 18 19 20 21 22 23 24 25 26
000
FTUS45 KPUB 192320
TAFPUB
TAF
KPUB 192320Z 2000/2024 12010KT P6SM FEW120
     FM200200 VRB06KT P6SM SCT120 SCT200
     FM200600 34007KT P6SM FEW200
     FM201200 04008KT P6SM FEW200
     FM201800 09010KT P6SM FEW080 SCT150=

USA.gov is the U.S. government's official web portal to all federal, state and local government web resources and services.